Hitterdal, Minnesota
Current Conditions -  °F | °C
As of 4:35 PM on Friday 19 Dec 2014 (Local Time) from KDTL Reporting Station
Moderate Snow Moderate Snow  
Wind Chill: 21°   Ceiling: 400
Heat Index: 30°   Visibility: 0.75mi
Dew Point: 28°   Wind: 12mph
Humidity: 93%   Direction: 150°SSE
Pressure: 30.04"   Gusts: NA
Location:  46.98°N, 96.26°W
Report Text: KDTL 192235Z AUTO 15010KT 3/4SM SN OVC004 M01/M02 A3004 RMK AO2
Loading
Personal Weather Stations






























Interactive Weather Map New forecast layout! Learn more

10-Day Weather Forecast

Advertisements
Track Severe Weather on mobile